Walsall, United Kingdom
Current Conditions -  °F | °C
As of 10:50 PM on Wednesday 22 Oct 2014 (Local Time) from EGBB Reporting Station
Clear Clear  
Wind Chill: 52°   Ceiling: Unl
Heat Index: 52°   Visibility: 6mi
Dew Point: 46°   Wind: 6mph
Humidity: 82%   Direction: 220°SW
Pressure: 30.15"   Gusts: NA
Location:  52.59°N, 1.98°W
Report Text: EGBB 222150Z 22005KT 190V260 CAVOK 11/08 Q1021
Loading
Personal Weather Stations






























Interactive Weather Map
Tropical Storm Tracking
New forecast layout! Learn more

10-Day Weather Forecast

Advertisements
Track Severe Weather on mobile